sensor_id;sensor_type;location;lat;lon;timestamp;pressure;altitude;pressure_sealevel;temperature;humidity
30897;BME280;17597;52.246;21.054;2022-07-23T00:00:06;100504.38;;;24.32;54.41
30897;BME280;17597;52.246;21.054;2022-07-23T00:02:32;100503.84;;;24.26;54.61
30897;BME280;17597;52.246;21.054;2022-07-23T00:04:58;100503.28;;;24.20;55.15
30897;BME280;17597;52.246;21.054;2022-07-23T00:07:23;100493.63;;;24.07;55.51
30897;BME280;17597;52.246;21.054;2022-07-23T00:09:48;100495.13;;;24.05;55.63
30897;BME280;17597;52.246;21.054;2022-07-23T00:12:14;100501.78;;;24.07;56.23
30897;BME280;17597;52.246;21.054;2022-07-23T00:14:39;100504.53;;;24.07;56.00
30897;BME280;17597;52.246;21.054;2022-07-23T00:17:04;100510.56;;;24.01;56.55
30897;BME280;17597;52.246;21.054;2022-07-23T00:19:30;100500.09;;;24.03;56.40
30897;BME280;17597;52.246;21.054;2022-07-23T00:21:55;100505.81;;;23.98;56.40
30897;BME280;17597;52.246;21.054;2022-07-23T00:24:20;100510.72;;;23.92;56.82
30897;BME280;17597;52.246;21.054;2022-07-23T00:26:46;100498.50;;;23.86;56.71
30897;BME280;17597;52.246;21.054;2022-07-23T00:29:11;100505.47;;;23.83;56.97
30897;BME280;17597;52.246;21.054;2022-07-23T00:31:37;100506.50;;;23.79;57.17
30897;BME280;17597;52.246;21.054;2022-07-23T00:34:02;100508.84;;;23.80;57.42
30897;BME280;17597;52.246;21.054;2022-07-23T00:36:28;100506.06;;;23.77;57.05
30897;BME280;17597;52.246;21.054;2022-07-23T00:38:53;100505.84;;;23.70;57.37
30897;BME280;17597;52.246;21.054;2022-07-23T00:41:19;100516.06;;;23.73;57.74
30897;BME280;17597;52.246;21.054;2022-07-23T00:43:44;100513.13;;;23.65;57.85
30897;BME280;17597;52.246;21.054;2022-07-23T00:46:09;100512.69;;;23.63;58.18
30897;BME280;17597;52.246;21.054;2022-07-23T00:48:35;100511.56;;;23.64;58.63
30897;BME280;17597;52.246;21.054;2022-07-23T00:51:00;100503.63;;;23.59;58.99
30897;BME280;17597;52.246;21.054;2022-07-23T00:53:26;100511.59;;;23.52;59.79
30897;BME280;17597;52.246;21.054;2022-07-23T00:55:51;100510.88;;;23.55;59.75
30897;BME280;17597;52.246;21.054;2022-07-23T00:58:18;100510.53;;;23.57;58.72
30897;BME280;17597;52.246;21.054;2022-07-23T01:00:44;100511.47;;;23.49;58.21
30897;BME280;17597;52.246;21.054;2022-07-23T01:03:10;100507.63;;;23.37;59.22
30897;BME280;17597;52.246;21.054;2022-07-23T01:05:35;100510.28;;;23.34;59.85
30897;BME280;17597;52.246;21.054;2022-07-23T01:08:01;100510.97;;;23.31;60.15
30897;BME280;17597;52.246;21.054;2022-07-23T01:10:26;100502.13;;;23.22;60.42
30897;BME280;17597;52.246;21.054;2022-07-23T01:13:08;100515.75;;;23.22;60.62
30897;BME280;17597;52.246;21.054;2022-07-23T01:15:38;100511.31;;;23.17;60.75
30897;BME280;17597;52.246;21.054;2022-07-23T01:18:05;100516.69;;;23.14;60.79
30897;BME280;17597;52.246;21.054;2022-07-23T01:20:31;100515.00;;;23.09;61.29
30897;BME280;17597;52.246;21.054;2022-07-23T01:22:57;100509.41;;;23.05;61.90
30897;BME280;17597;52.246;21.054;2022-07-23T01:25:23;100509.31;;;23.02;61.97
30897;BME280;17597;52.246;21.054;2022-07-23T01:27:49;100511.34;;;23.05;62.17
30897;BME280;17597;52.246;21.054;2022-07-23T01:30:16;100518.97;;;22.99;62.49
30897;BME280;17597;52.246;21.054;2022-07-23T01:32:41;100503.91;;;22.90;62.44
30897;BME280;17597;52.246;21.054;2022-07-23T01:35:08;100517.97;;;22.92;62.53
30897;BME280;17597;52.246;21.054;2022-07-23T01:37:33;100519.44;;;22.89;62.82
30897;BME280;17597;52.246;21.054;2022-07-23T01:39:59;100523.06;;;22.93;63.11
30897;BME280;17597;52.246;21.054;2022-07-23T01:42:25;100522.97;;;22.90;63.03
30897;BME280;17597;52.246;21.054;2022-07-23T01:44:50;100525.41;;;22.83;63.02
30897;BME280;17597;52.246;21.054;2022-07-23T01:47:16;100521.34;;;22.76;63.19
30897;BME280;17597;52.246;21.054;2022-07-23T01:49:41;100527.59;;;22.77;63.79
30897;BME280;17597;52.246;21.054;2022-07-23T01:52:06;100522.47;;;22.75;63.36
30897;BME280;17597;52.246;21.054;2022-07-23T01:54:37;100516.03;;;22.68;63.73
30897;BME280;17597;52.246;21.054;2022-07-23T01:57:03;100514.53;;;22.70;63.38
30897;BME280;17597;52.246;21.054;2022-07-23T01:59:29;100517.59;;;22.69;63.40
30897;BME280;17597;52.246;21.054;2022-07-23T02:01:54;100528.81;;;22.67;63.22
30897;BME280;17597;52.246;21.054;2022-07-23T02:04:21;100514.09;;;22.68;62.13
30897;BME280;17597;52.246;21.054;2022-07-23T02:06:47;100515.22;;;22.67;62.07
30897;BME280;17597;52.246;21.054;2022-07-23T02:09:12;100502.88;;;22.70;62.55
30897;BME280;17597;52.246;21.054;2022-07-23T02:11:38;100510.56;;;22.68;62.90
30897;BME280;17597;52.246;21.054;2022-07-23T02:14:04;100510.22;;;22.69;63.34
30897;BME280;17597;52.246;21.054;2022-07-23T02:16:29;100502.75;;;22.66;63.75
30897;BME280;17597;52.246;21.054;2022-07-23T02:18:54;100502.53;;;22.71;64.26
30897;BME280;17597;52.246;21.054;2022-07-23T02:21:20;100510.00;;;22.74;64.40
30897;BME280;17597;52.246;21.054;2022-07-23T02:23:45;100502.16;;;22.73;64.37
30897;BME280;17597;52.246;21.054;2022-07-23T02:26:10;100504.91;;;22.73;64.39
30897;BME280;17597;52.246;21.054;2022-07-23T02:28:36;100509.78;;;22.67;64.93
30897;BME280;17597;52.246;21.054;2022-07-23T02:31:02;100505.59;;;22.70;64.75
30897;BME280;17597;52.246;21.054;2022-07-23T02:33:29;100508.19;;;22.66;65.25
30897;BME280;17597;52.246;21.054;2022-07-23T02:35:54;100501.03;;;22.62;65.23
30897;BME280;17597;52.246;21.054;2022-07-23T02:38:20;100502.19;;;22.61;65.46
30897;BME280;17597;52.246;21.054;2022-07-23T02:40:45;100503.41;;;22.63;65.89
30897;BME280;17597;52.246;21.054;2022-07-23T02:43:10;100494.72;;;22.58;66.23
30897;BME280;17597;52.246;21.054;2022-07-23T02:45:36;100497.78;;;22.56;66.47
30897;BME280;17597;52.246;21.054;2022-07-23T02:48:01;100487.91;;;22.51;66.66
30897;BME280;17597;52.246;21.054;2022-07-23T02:50:27;100493.22;;;22.48;66.97
30897;BME280;17597;52.246;21.054;2022-07-23T02:52:52;100500.50;;;22.44;67.13
30897;BME280;17597;52.246;21.054;2022-07-23T02:55:18;100487.00;;;22.47;66.92
30897;BME280;17597;52.246;21.054;2022-07-23T02:57:43;100494.47;;;22.38;67.13
30897;BME280;17597;52.246;21.054;2022-07-23T03:00:09;100483.00;;;22.33;67.00
30897;BME280;17597;52.246;21.054;2022-07-23T03:02:35;100485.53;;;22.38;67.39
30897;BME280;17597;52.246;21.054;2022-07-23T03:05:00;100482.13;;;22.41;67.30
30897;BME280;17597;52.246;21.054;2022-07-23T03:07:26;100492.34;;;22.44;66.96
30897;BME280;17597;52.246;21.054;2022-07-23T03:09:51;100488.13;;;22.46;66.43
30897;BME280;17597;52.246;21.054;2022-07-23T03:12:17;100492.78;;;22.46;65.62
30897;BME280;17597;52.246;21.054;2022-07-23T03:14:42;100484.84;;;22.41;64.95
30897;BME280;17597;52.246;21.054;2022-07-23T03:17:08;100492.19;;;22.40;65.10
30897;BME280;17597;52.246;21.054;2022-07-23T03:19:34;100491.16;;;22.33;65.57
30897;BME280;17597;52.246;21.054;2022-07-23T03:21:59;100491.41;;;22.40;65.35
30897;BME280;17597;52.246;21.054;2022-07-23T03:24:24;100487.44;;;22.37;65.29
30897;BME280;17597;52.246;21.054;2022-07-23T03:27:10;100490.38;;;22.32;65.05
30897;BME280;17597;52.246;21.054;2022-07-23T03:29:36;100495.94;;;22.36;65.43
30897;BME280;17597;52.246;21.054;2022-07-23T03:32:03;100501.94;;;22.41;63.85
30897;BME280;17597;52.246;21.054;2022-07-23T03:34:28;100493.00;;;22.41;63.68
30897;BME280;17597;52.246;21.054;2022-07-23T03:36:54;100503.88;;;22.41;63.90
30897;BME280;17597;52.246;21.054;2022-07-23T03:39:19;100501.84;;;22.38;63.17
30897;BME280;17597;52.246;21.054;2022-07-23T03:41:44;100499.81;;;22.35;63.47
30897;BME280;17597;52.246;21.054;2022-07-23T03:44:10;100504.31;;;22.31;63.38
30897;BME280;17597;52.246;21.054;2022-07-23T03:46:35;100506.38;;;22.34;63.13
30897;BME280;17597;52.246;21.054;2022-07-23T03:49:00;100506.81;;;22.36;63.48
30897;BME280;17597;52.246;21.054;2022-07-23T03:51:26;100509.19;;;22.37;63.18
30897;BME280;17597;52.246;21.054;2022-07-23T03:53:51;100510.53;;;22.31;63.19
30897;BME280;17597;52.246;21.054;2022-07-23T03:56:16;100512.47;;;22.31;63.24
30897;BME280;17597;52.246;21.054;2022-07-23T03:58:42;100510.78;;;22.26;63.35
30897;BME280;17597;52.246;21.054;2022-07-23T04:01:07;100504.31;;;22.31;62.94
30897;BME280;17597;52.246;21.054;2022-07-23T04:03:32;100511.69;;;22.42;62.54
30897;BME280;17597;52.246;21.054;2022-07-23T04:05:58;100505.25;;;22.35;62.44
30897;BME280;17597;52.246;21.054;2022-07-23T04:08:23;100517.59;;;22.44;62.11
30897;BME280;17597;52.246;21.054;2022-07-23T04:10:49;100510.09;;;22.41;62.55
30897;BME280;17597;52.246;21.054;2022-07-23T04:13:14;100511.47;;;22.47;62.56
30897;BME280;17597;52.246;21.054;2022-07-23T04:15:40;100517.03;;;22.51;62.66
30897;BME280;17597;52.246;21.054;2022-07-23T04:18:05;100516.22;;;22.50;62.29
30897;BME280;17597;52.246;21.054;2022-07-23T04:20:31;100524.84;;;22.52;61.89
30897;BME280;17597;52.246;21.054;2022-07-23T04:22:56;100517.38;;;22.49;62.01
30897;BME280;17597;52.246;21.054;2022-07-23T04:25:22;100516.81;;;22.56;61.70
30897;BME280;17597;52.246;21.054;2022-07-23T04:27:47;100516.03;;;22.56;61.61
30897;BME280;17597;52.246;21.054;2022-07-23T04:30:12;100509.22;;;22.49;61.95
30897;BME280;17597;52.246;21.054;2022-07-23T04:32:38;100511.81;;;22.46;62.14
30897;BME280;17597;52.246;21.054;2022-07-23T04:35:03;100514.66;;;22.49;62.15
30897;BME280;17597;52.246;21.054;2022-07-23T04:37:28;100513.50;;;22.38;62.51
30897;BME280;17597;52.246;21.054;2022-07-23T04:39:54;100517.13;;;22.42;62.87
30897;BME280;17597;52.246;21.054;2022-07-23T04:42:19;100509.91;;;22.46;62.56
30897;BME280;17597;52.246;21.054;2022-07-23T04:44:45;100501.03;;;22.49;62.53
30897;BME280;17597;52.246;21.054;2022-07-23T04:47:10;100514.44;;;22.55;62.62
30897;BME280;17597;52.246;21.054;2022-07-23T04:49:35;100508.75;;;22.60;62.58
30897;BME280;17597;52.246;21.054;2022-07-23T04:52:01;100511.94;;;22.62;62.73
30897;BME280;17597;52.246;21.054;2022-07-23T04:54:26;100510.78;;;22.63;62.90
30897;BME280;17597;52.246;21.054;2022-07-23T04:56:51;100512.38;;;22.64;62.87
30897;BME280;17597;52.246;21.054;2022-07-23T04:59:17;100511.16;;;22.86;61.60
30897;BME280;17597;52.246;21.054;2022-07-23T05:01:42;100511.81;;;22.83;61.48
30897;BME280;17597;52.246;21.054;2022-07-23T05:04:08;100512.28;;;22.85;61.36
30897;BME280;17597;52.246;21.054;2022-07-23T05:06:33;100513.66;;;22.91;60.89
30897;BME280;17597;52.246;21.054;2022-07-23T05:08:59;100507.84;;;22.92;60.59
30897;BME280;17597;52.246;21.054;2022-07-23T05:11:24;100511.94;;;22.98;60.46
30897;BME280;17597;52.246;21.054;2022-07-23T05:13:50;100518.72;;;23.04;60.25
30897;BME280;17597;52.246;21.054;2022-07-23T05:16:16;100510.81;;;22.99;60.60
30897;BME280;17597;52.246;21.054;2022-07-23T05:18:41;100518.63;;;23.01;60.81
30897;BME280;17597;52.246;21.054;2022-07-23T05:21:07;100521.44;;;23.04;61.03
30897;BME280;17597;52.246;21.054;2022-07-23T05:23:33;100516.22;;;23.12;60.92
30897;BME280;17597;52.246;21.054;2022-07-23T05:25:59;100514.75;;;23.14;61.02
30897;BME280;17597;52.246;21.054;2022-07-23T05:28:24;100522.00;;;23.22;60.90
30897;BME280;17597;52.246;21.054;2022-07-23T05:30:50;100482.88;;;23.15;60.44
30897;BME280;17597;52.246;21.054;2022-07-23T05:33:18;100511.63;;;23.40;60.38
30897;BME280;17597;52.246;21.054;2022-07-23T05:35:44;100507.16;;;23.48;60.00
30897;BME280;17597;52.246;21.054;2022-07-23T05:38:09;100513.38;;;23.60;59.76
30897;BME280;17597;52.246;21.054;2022-07-23T05:40:35;100502.59;;;23.64;59.48
30897;BME280;17597;52.246;21.054;2022-07-23T05:43:00;100507.47;;;23.86;58.50
30897;BME280;17597;52.246;21.054;2022-07-23T05:45:29;100502.03;;;23.86;58.54
30897;BME280;17597;52.246;21.054;2022-07-23T05:47:54;100503.69;;;23.91;58.33
30897;BME280;17597;52.246;21.054;2022-07-23T05:50:19;100505.38;;;23.95;58.69
30897;BME280;17597;52.246;21.054;2022-07-23T05:52:45;100497.66;;;24.13;58.27
30897;BME280;17597;52.246;21.054;2022-07-23T05:55:11;100503.22;;;24.17;57.86
30897;BME280;17597;52.246;21.054;2022-07-23T05:57:37;100494.41;;;24.23;57.64
30897;BME280;17597;52.246;21.054;2022-07-23T06:00:05;100500.63;;;24.36;56.53
30897;BME280;17597;52.246;21.054;2022-07-23T06:02:31;100496.81;;;24.41;56.72
30897;BME280;17597;52.246;21.054;2022-07-23T06:04:56;100501.31;;;24.49;56.02
30897;BME280;17597;52.246;21.054;2022-07-23T06:07:22;100502.44;;;24.64;55.56
30897;BME280;17597;52.246;21.054;2022-07-23T06:09:47;100502.19;;;24.69;55.67
30897;BME280;17597;52.246;21.054;2022-07-23T06:12:15;100498.91;;;24.79;55.43
30897;BME280;17597;52.246;21.054;2022-07-23T06:14:40;100504.78;;;24.81;55.04
30897;BME280;17597;52.246;21.054;2022-07-23T06:17:05;100496.13;;;24.95;54.33
30897;BME280;17597;52.246;21.054;2022-07-23T06:19:31;100490.22;;;24.93;54.54
30897;BME280;17597;52.246;21.054;2022-07-23T06:21:56;100504.16;;;25.03;54.47
30897;BME280;17597;52.246;21.054;2022-07-23T06:24:22;100496.91;;;25.11;54.59
30897;BME280;17597;52.246;21.054;2022-07-23T06:26:47;100497.03;;;25.18;54.55
30897;BME280;17597;52.246;21.054;2022-07-23T06:29:12;100498.72;;;25.23;53.99
30897;BME280;17597;52.246;21.054;2022-07-23T06:31:38;100495.53;;;25.40;53.54
30897;BME280;17597;52.246;21.054;2022-07-23T06:34:03;100499.28;;;25.51;53.11
30897;BME280;17597;52.246;21.054;2022-07-23T06:36:28;100501.88;;;25.63;52.90
30897;BME280;17597;52.246;21.054;2022-07-23T06:38:54;100497.44;;;25.75;51.54
30897;BME280;17597;52.246;21.054;2022-07-23T06:41:19;100499.38;;;25.74;51.89
30897;BME280;17597;52.246;21.054;2022-07-23T06:43:44;100495.25;;;25.84;51.79
30897;BME280;17597;52.246;21.054;2022-07-23T06:46:10;100491.25;;;26.01;52.06
30897;BME280;17597;52.246;21.054;2022-07-23T06:48:35;100500.94;;;26.17;51.85
30897;BME280;17597;52.246;21.054;2022-07-23T06:51:01;100502.75;;;26.10;51.14
30897;BME280;17597;52.246;21.054;2022-07-23T06:53:27;100503.22;;;25.92;51.60
30897;BME280;17597;52.246;21.054;2022-07-23T06:55:52;100502.34;;;26.08;51.27
30897;BME280;17597;52.246;21.054;2022-07-23T06:58:17;100498.50;;;26.12;50.87
30897;BME280;17597;52.246;21.054;2022-07-23T07:00:44;100500.75;;;26.07;51.75
30897;BME280;17597;52.246;21.054;2022-07-23T07:03:11;100495.69;;;26.32;50.51
30897;BME280;17597;52.246;21.054;2022-07-23T07:05:36;100486.91;;;26.42;50.31
30897;BME280;17597;52.246;21.054;2022-07-23T07:08:02;100489.75;;;26.49;49.63
30897;BME280;17597;52.246;21.054;2022-07-23T07:10:27;100492.00;;;26.43;49.24
30897;BME280;17597;52.246;21.054;2022-07-23T07:12:52;100483.59;;;26.56;47.98
30897;BME280;17597;52.246;21.054;2022-07-23T07:15:18;100484.16;;;26.68;47.48
30897;BME280;17597;52.246;21.054;2022-07-23T07:17:43;100483.34;;;26.91;46.98
30897;BME280;17597;52.246;21.054;2022-07-23T07:20:09;100485.22;;;27.13;46.45
30897;BME280;17597;52.246;21.054;2022-07-23T07:22:35;100482.56;;;27.20;45.94
30897;BME280;17597;52.246;21.054;2022-07-23T07:25:00;100481.97;;;27.67;45.18
30897;BME280;17597;52.246;21.054;2022-07-23T07:27:26;100472.88;;;29.03;42.37
30897;BME280;17597;52.246;21.054;2022-07-23T07:29:51;100481.44;;;32.32;37.40
30897;BME280;17597;52.246;21.054;2022-07-23T07:32:16;100489.91;;;36.26;29.77
30897;BME280;17597;52.246;21.054;2022-07-23T07:34:42;100482.16;;;37.08;28.06
30897;BME280;17597;52.246;21.054;2022-07-23T07:37:07;100482.94;;;39.36;25.21
30897;BME280;17597;52.246;21.054;2022-07-23T07:39:32;100472.91;;;42.01;21.53
30897;BME280;17597;52.246;21.054;2022-07-23T07:41:58;100473.28;;;42.08;20.91
30897;BME280;17597;52.246;21.054;2022-07-23T07:44:23;100468.50;;;41.43;21.63
30897;BME280;17597;52.246;21.054;2022-07-23T07:46:48;100469.25;;;43.01;19.77
30897;BME280;17597;52.246;21.054;2022-07-23T07:49:14;100476.34;;;43.97;18.78
30897;BME280;17597;52.246;21.054;2022-07-23T07:51:41;100482.59;;;45.25;17.25
30897;BME280;17597;52.246;21.054;2022-07-23T07:54:06;100482.22;;;46.40;16.81
30897;BME280;17597;52.246;21.054;2022-07-23T07:56:32;100480.66;;;44.79;18.17
30897;BME280;17597;52.246;21.054;2022-07-23T07:58:57;100479.72;;;46.48;16.31
30897;BME280;17597;52.246;21.054;2022-07-23T08:01:23;100485.41;;;47.43;15.43
30897;BME280;17597;52.246;21.054;2022-07-23T08:03:48;100487.41;;;48.81;13.73
30897;BME280;17597;52.246;21.054;2022-07-23T08:06:14;100484.56;;;49.16;13.72
30897;BME280;17597;52.246;21.054;2022-07-23T08:08:39;100489.53;;;49.89;12.85
30897;BME280;17597;52.246;21.054;2022-07-23T08:11:04;100483.66;;;49.82;13.16
30897;BME280;17597;52.246;21.054;2022-07-23T08:13:30;100482.59;;;49.85;13.53
30897;BME280;17597;52.246;21.054;2022-07-23T08:15:55;100489.63;;;50.21;12.80
30897;BME280;17597;52.246;21.054;2022-07-23T08:18:21;100487.13;;;50.69;12.88
30897;BME280;17597;52.246;21.054;2022-07-23T08:20:46;100493.44;;;50.61;12.51
30897;BME280;17597;52.246;21.054;2022-07-23T08:23:12;100477.53;;;48.99;13.52
30897;BME280;17597;52.246;21.054;2022-07-23T08:25:40;100480.03;;;47.00;15.25
30897;BME280;17597;52.246;21.054;2022-07-23T08:28:08;100479.94;;;47.90;14.33
30897;BME280;17597;52.246;21.054;2022-07-23T08:30:34;100483.63;;;48.26;14.40
30897;BME280;17597;52.246;21.054;2022-07-23T08:33:09;100482.81;;;48.78;14.27
30897;BME280;17597;52.246;21.054;2022-07-23T08:35:46;100476.47;;;47.22;14.84
30897;BME280;17597;52.246;21.054;2022-07-23T08:38:15;100475.34;;;46.52;15.45
30897;BME280;17597;52.246;21.054;2022-07-23T08:40:45;100481.78;;;46.69;15.63
30897;BME280;17597;52.246;21.054;2022-07-23T08:43:13;100481.22;;;47.83;14.59
30897;BME280;17597;52.246;21.054;2022-07-23T08:45:42;100478.75;;;48.26;14.25
30897;BME280;17597;52.246;21.054;2022-07-23T08:48:12;100480.91;;;45.07;16.64
30897;BME280;17597;52.246;21.054;2022-07-23T08:50:42;100476.69;;;42.36;19.44
30897;BME280;17597;52.246;21.054;2022-07-23T08:53:07;100474.66;;;41.14;20.90
30897;BME280;17597;52.246;21.054;2022-07-23T08:55:33;100470.47;;;42.32;18.73
30897;BME280;17597;52.246;21.054;2022-07-23T08:57:59;100466.31;;;42.52;18.72
30897;BME280;17597;52.246;21.054;2022-07-23T09:00:25;100465.56;;;42.42;18.69
30897;BME280;17597;52.246;21.054;2022-07-23T09:02:51;100469.88;;;41.47;19.21
30897;BME280;17597;52.246;21.054;2022-07-23T09:05:17;100466.38;;;41.71;19.46
30897;BME280;17597;52.246;21.054;2022-07-23T09:08:11;100472.72;;;42.82;18.51
30897;BME280;17597;52.246;21.054;2022-07-23T09:16:06;100457.81;;;43.20;17.36
30897;BME280;17597;52.246;21.054;2022-07-23T09:18:38;100466.00;;;44.49;16.12
30897;BME280;17597;52.246;21.054;2022-07-23T09:23:57;100458.44;;;45.93;15.66
30897;BME280;17597;52.246;21.054;2022-07-23T09:34:12;100454.00;;;45.32;17.07
30897;BME280;17597;52.246;21.054;2022-07-23T09:36:38;100456.81;;;44.28;17.01
30897;BME280;17597;52.246;21.054;2022-07-23T09:39:04;100446.69;;;43.40;16.93
30897;BME280;17597;52.246;21.054;2022-07-23T09:41:58;100453.59;;;44.61;16.73
30897;BME280;17597;52.246;21.054;2022-07-23T09:44:23;100453.25;;;45.37;14.87
30897;BME280;17597;52.246;21.054;2022-07-23T09:46:50;100443.25;;;43.86;17.01
30897;BME280;17597;52.246;21.054;2022-07-23T09:49:18;100453.38;;;44.19;16.85
30897;BME280;17597;52.246;21.054;2022-07-23T09:51:49;100427.41;;;44.09;17.59
30897;BME280;17597;52.246;21.054;2022-07-23T09:54:29;100445.41;;;44.37;16.91
30897;BME280;17597;52.246;21.054;2022-07-23T09:56:58;100438.84;;;45.29;15.63
30897;BME280;17597;52.246;21.054;2022-07-23T09:59:30;100429.22;;;44.84;16.41
30897;BME280;17597;52.246;21.054;2022-07-23T10:01:57;100428.28;;;44.41;16.21
30897;BME280;17597;52.246;21.054;2022-07-23T10:04:25;100427.69;;;43.35;17.63
30897;BME280;17597;52.246;21.054;2022-07-23T10:06:54;100431.19;;;43.30;16.69
30897;BME280;17597;52.246;21.054;2022-07-23T10:09:28;100428.38;;;43.15;16.87
30897;BME280;17597;52.246;21.054;2022-07-23T10:12:02;100425.69;;;41.51;18.29
30897;BME280;17597;52.246;21.054;2022-07-23T10:14:31;100422.06;;;39.22;20.91
30897;BME280;17597;52.246;21.054;2022-07-23T10:17:00;100423.59;;;38.13;22.81
30897;BME280;17597;52.246;21.054;2022-07-23T10:19:27;100412.78;;;36.46;23.07
30897;BME280;17597;52.246;21.054;2022-07-23T10:21:57;100420.72;;;35.50;23.80
30897;BME280;17597;52.246;21.054;2022-07-23T10:36:19;100414.22;;;33.14;28.45
30897;BME280;17597;52.246;21.054;2022-07-23T10:39:03;100410.66;;;32.86;28.49
30897;BME280;17597;52.246;21.054;2022-07-23T10:41:41;100411.69;;;33.26;28.71
30897;BME280;17597;52.246;21.054;2022-07-23T10:44:13;100414.78;;;33.32;28.27
30897;BME280;17597;52.246;21.054;2022-07-23T10:46:59;100416.28;;;33.06;28.21
30897;BME280;17597;52.246;21.054;2022-07-23T10:49:29;100409.81;;;33.20;28.65
30897;BME280;17597;52.246;21.054;2022-07-23T10:54:40;100409.66;;;33.57;28.65
30897;BME280;17597;52.246;21.054;2022-07-23T10:57:10;100405.69;;;33.58;27.60
30897;BME280;17597;52.246;21.054;2022-07-23T11:02:49;100409.09;;;33.70;28.25
30897;BME280;17597;52.246;21.054;2022-07-23T11:05:20;100409.88;;;33.70;27.80
30897;BME280;17597;52.246;21.054;2022-07-23T11:10:50;100402.66;;;33.76;27.07
30897;BME280;17597;52.246;21.054;2022-07-23T11:34:40;100398.19;;;32.33;30.92
30897;BME280;17597;52.246;21.054;2022-07-23T11:37:08;100393.78;;;32.73;29.32
30897;BME280;17597;52.246;21.054;2022-07-23T11:39:34;100390.69;;;32.68;29.56
30897;BME280;17597;52.246;21.054;2022-07-23T11:42:01;100398.03;;;32.81;29.83
30897;BME280;17597;52.246;21.054;2022-07-23T11:44:38;100392.47;;;32.85;29.29
30897;BME280;17597;52.246;21.054;2022-07-23T11:47:05;100387.16;;;32.64;29.95
30897;BME280;17597;52.246;21.054;2022-07-23T11:49:31;100388.56;;;32.83;28.93
30897;BME280;17597;52.246;21.054;2022-07-23T11:54:30;100385.91;;;33.33;28.75
30897;BME280;17597;52.246;21.054;2022-07-23T11:56:57;100390.59;;;33.40;29.22
30897;BME280;17597;52.246;21.054;2022-07-23T11:59:24;100392.16;;;33.41;29.72
30897;BME280;17597;52.246;21.054;2022-07-23T12:02:03;100380.81;;;33.31;29.07
30897;BME280;17597;52.246;21.054;2022-07-23T12:04:42;100376.09;;;33.55;28.56
30897;BME280;17597;52.246;21.054;2022-07-23T12:09:53;100357.47;;;33.83;27.69
30897;BME280;17597;52.246;21.054;2022-07-23T12:12:18;100355.38;;;33.90;27.49
30897;BME280;17597;52.246;21.054;2022-07-23T12:17:17;100349.63;;;33.27;29.24
30897;BME280;17597;52.246;21.054;2022-07-23T12:19:43;100354.25;;;33.37;28.61
30897;BME280;17597;52.246;21.054;2022-07-23T12:22:09;100353.09;;;33.62;28.57
30897;BME280;17597;52.246;21.054;2022-07-23T12:27:22;100336.91;;;33.33;29.34
30897;BME280;17597;52.246;21.054;2022-07-23T12:29:49;100333.63;;;33.42;28.49
30897;BME280;17597;52.246;21.054;2022-07-23T12:32:20;100333.16;;;33.71;27.75
30897;BME280;17597;52.246;21.054;2022-07-23T12:34:48;100333.34;;;33.60;28.85
30897;BME280;17597;52.246;21.054;2022-07-23T12:37:27;100334.19;;;33.30;28.29
30897;BME280;17597;52.246;21.054;2022-07-23T12:39:52;100329.44;;;33.30;28.21
30897;BME280;17597;52.246;21.054;2022-07-23T12:42:18;100326.13;;;33.43;28.83
30897;BME280;17597;52.246;21.054;2022-07-23T12:45:09;100326.19;;;33.62;28.89
30897;BME280;17597;52.246;21.054;2022-07-23T12:55:38;100302.59;;;33.27;28.25
30897;BME280;17597;52.246;21.054;2022-07-23T12:58:09;100313.31;;;33.76;27.64
30897;BME280;17597;52.246;21.054;2022-07-23T13:00:54;100303.00;;;34.00;27.60
30897;BME280;17597;52.246;21.054;2022-07-23T13:03:40;100299.06;;;33.54;27.88
30897;BME280;17597;52.246;21.054;2022-07-23T13:06:10;100290.53;;;32.91;28.64
30897;BME280;17597;52.246;21.054;2022-07-23T13:08:38;100285.91;;;32.80;29.00
30897;BME280;17597;52.246;21.054;2022-07-23T13:11:05;100285.16;;;33.07;28.90
30897;BME280;17597;52.246;21.054;2022-07-23T13:13:33;100285.47;;;33.40;28.78
30897;BME280;17597;52.246;21.054;2022-07-23T13:15:59;100282.22;;;33.45;28.97
30897;BME280;17597;52.246;21.054;2022-07-23T13:18:27;100281.59;;;33.57;28.46
30897;BME280;17597;52.246;21.054;2022-07-23T13:20:53;100280.38;;;33.81;27.74
30897;BME280;17597;52.246;21.054;2022-07-23T13:23:19;100283.50;;;34.07;27.72
30897;BME280;17597;52.246;21.054;2022-07-23T13:25:45;100287.06;;;34.07;27.84
30897;BME280;17597;52.246;21.054;2022-07-23T13:28:12;100281.38;;;34.14;27.42
30897;BME280;17597;52.246;21.054;2022-07-23T13:30:38;100282.00;;;34.02;27.42
30897;BME280;17597;52.246;21.054;2022-07-23T13:33:04;100284.34;;;33.60;28.24
30897;BME280;17597;52.246;21.054;2022-07-23T13:35:30;100279.59;;;33.34;28.27
30897;BME280;17597;52.246;21.054;2022-07-23T13:37:56;100282.78;;;33.32;27.99
30897;BME280;17597;52.246;21.054;2022-07-23T13:40:22;100288.88;;;32.66;29.26
30897;BME280;17597;52.246;21.054;2022-07-23T13:42:47;100289.66;;;32.36;30.40
30897;BME280;17597;52.246;21.054;2022-07-23T13:45:13;100291.88;;;32.11;29.77
30897;BME280;17597;52.246;21.054;2022-07-23T13:47:38;100280.63;;;32.29;29.88
30897;BME280;17597;52.246;21.054;2022-07-23T13:50:05;100273.66;;;32.51;30.04
30897;BME280;17597;52.246;21.054;2022-07-23T13:52:30;100270.88;;;32.81;29.51
30897;BME280;17597;52.246;21.054;2022-07-23T13:55:03;100271.28;;;33.11;28.81